UAAH/BXH METAR and TAF weather

Enter ICAO airport designator
Station Type Date Time Source
UAAH METAR 2022/12/02 11:30 UTC NOAA

UAAH 021130Z 06005MPS 9999 FEW049 M16/M19 Q1032 NOSIG RMK QFE736/0981


Station Type Date Time Source
UAAH Decoded METAR 2022/12/02 11:30 UTC NOAA

Station name not available
Dec 02, 2022 - 06:30 AM EST / 2022.12.02 1130 UTC
Wind: from the ENE (060 degrees) at 11 MPH (10 KT):0
Visibility: greater than 7 mile(s):0
Sky conditions: mostly clear
Temperature: 3 F (-16 C)
Windchill: -13 F (-25 C):2
Dew Point: -2 F (-19 C)
Relative Humidity: 77%
Pressure (altimeter): 30.47 in. Hg (1032 hPa)
ob: UAAH 021130Z 06005MPS 9999 FEW049 M16/M19 Q1032 NOSIG RMK QFE736/0981
cycle: 11

Station Type Date Time Source
UAAH TAF 2021/05/11 09:06 UTC NOAA

TAF
AMD TAF
AMD UAAH 111100Z 1109/1218 CNL

Example: see airport list